sensor_id;sensor_type;location;lat;lon;timestamp;temperature;humidity
5735;DHT22;2892;47.592;7.688;2024-01-15T00:01:30;1.80;87.40
5735;DHT22;2892;47.592;7.688;2024-01-15T00:03:55;1.80;87.20
5735;DHT22;2892;47.592;7.688;2024-01-15T00:06:21;1.80;87.70
5735;DHT22;2892;47.592;7.688;2024-01-15T00:08:46;1.80;87.30
5735;DHT22;2892;47.592;7.688;2024-01-15T00:11:12;1.80;87.60
5735;DHT22;2892;47.592;7.688;2024-01-15T00:13:37;1.80;87.70
5735;DHT22;2892;47.592;7.688;2024-01-15T00:16:04;1.80;87.70
5735;DHT22;2892;47.592;7.688;2024-01-15T00:18:30;1.70;87.60
5735;DHT22;2892;47.592;7.688;2024-01-15T00:20:55;1.70;87.70
5735;DHT22;2892;47.592;7.688;2024-01-15T00:23:21;1.70;87.60
5735;DHT22;2892;47.592;7.688;2024-01-15T00:25:46;1.70;88.60
5735;DHT22;2892;47.592;7.688;2024-01-15T00:28:12;1.70;88.00
5735;DHT22;2892;47.592;7.688;2024-01-15T00:30:37;1.60;87.90
5735;DHT22;2892;47.592;7.688;2024-01-15T00:33:03;1.60;87.50
5735;DHT22;2892;47.592;7.688;2024-01-15T00:35:28;1.60;87.80
5735;DHT22;2892;47.592;7.688;2024-01-15T00:37:54;1.50;87.90
5735;DHT22;2892;47.592;7.688;2024-01-15T00:40:19;1.50;87.80
5735;DHT22;2892;47.592;7.688;2024-01-15T00:42:45;1.50;87.70
5735;DHT22;2892;47.592;7.688;2024-01-15T00:45:10;1.40;87.50
5735;DHT22;2892;47.592;7.688;2024-01-15T00:47:36;1.40;88.10
5735;DHT22;2892;47.592;7.688;2024-01-15T00:50:01;1.40;88.10
5735;DHT22;2892;47.592;7.688;2024-01-15T00:52:27;1.40;86.60
5735;DHT22;2892;47.592;7.688;2024-01-15T00:54:52;1.40;86.00
5735;DHT22;2892;47.592;7.688;2024-01-15T00:57:18;1.40;84.70
5735;DHT22;2892;47.592;7.688;2024-01-15T00:59:43;1.30;85.50
5735;DHT22;2892;47.592;7.688;2024-01-15T01:02:09;1.20;85.40
5735;DHT22;2892;47.592;7.688;2024-01-15T01:04:34;1.30;85.40
5735;DHT22;2892;47.592;7.688;2024-01-15T01:07:00;1.20;85.90
5735;DHT22;2892;47.592;7.688;2024-01-15T01:09:25;1.20;85.20
5735;DHT22;2892;47.592;7.688;2024-01-15T01:11:50;1.20;85.00
5735;DHT22;2892;47.592;7.688;2024-01-15T01:14:16;1.20;84.30
5735;DHT22;2892;47.592;7.688;2024-01-15T01:16:41;1.20;83.90
5735;DHT22;2892;47.592;7.688;2024-01-15T01:19:07;1.10;83.80
5735;DHT22;2892;47.592;7.688;2024-01-15T01:21:33;1.10;82.80
5735;DHT22;2892;47.592;7.688;2024-01-15T01:23:59;1.10;83.70
5735;DHT22;2892;47.592;7.688;2024-01-15T01:26:24;1.10;83.80
5735;DHT22;2892;47.592;7.688;2024-01-15T01:28:50;1.00;83.40
5735;DHT22;2892;47.592;7.688;2024-01-15T01:31:15;1.10;83.40
5735;DHT22;2892;47.592;7.688;2024-01-15T01:33:41;1.00;83.60
5735;DHT22;2892;47.592;7.688;2024-01-15T01:36:09;1.00;82.80
5735;DHT22;2892;47.592;7.688;2024-01-15T01:38:36;0.90;82.60
5735;DHT22;2892;47.592;7.688;2024-01-15T01:41:02;1.00;83.60
5735;DHT22;2892;47.592;7.688;2024-01-15T01:43:27;0.90;83.20
5735;DHT22;2892;47.592;7.688;2024-01-15T01:45:56;0.90;83.50
5735;DHT22;2892;47.592;7.688;2024-01-15T01:48:22;0.90;83.50
5735;DHT22;2892;47.592;7.688;2024-01-15T01:50:48;0.80;83.90
5735;DHT22;2892;47.592;7.688;2024-01-15T01:53:14;0.70;84.10
5735;DHT22;2892;47.592;7.688;2024-01-15T01:55:40;0.70;84.10
5735;DHT22;2892;47.592;7.688;2024-01-15T01:58:06;0.70;84.50
5735;DHT22;2892;47.592;7.688;2024-01-15T02:00:33;0.60;85.20
5735;DHT22;2892;47.592;7.688;2024-01-15T02:02:59;0.60;84.90
5735;DHT22;2892;47.592;7.688;2024-01-15T02:05:25;0.50;84.70
5735;DHT22;2892;47.592;7.688;2024-01-15T02:07:52;0.50;85.30
5735;DHT22;2892;47.592;7.688;2024-01-15T02:10:17;0.50;85.00
5735;DHT22;2892;47.592;7.688;2024-01-15T02:12:43;0.40;84.80
5735;DHT22;2892;47.592;7.688;2024-01-15T02:15:09;0.40;85.30
5735;DHT22;2892;47.592;7.688;2024-01-15T02:17:34;0.30;85.10
5735;DHT22;2892;47.592;7.688;2024-01-15T02:20:00;0.30;85.70
5735;DHT22;2892;47.592;7.688;2024-01-15T02:22:25;0.30;85.40
5735;DHT22;2892;47.592;7.688;2024-01-15T02:24:51;0.30;85.90
5735;DHT22;2892;47.592;7.688;2024-01-15T02:27:16;0.20;85.70
5735;DHT22;2892;47.592;7.688;2024-01-15T02:29:42;0.20;85.50
5735;DHT22;2892;47.592;7.688;2024-01-15T02:32:09;0.00;85.30
5735;DHT22;2892;47.592;7.688;2024-01-15T02:34:34;-0.10;86.50
5735;DHT22;2892;47.592;7.688;2024-01-15T02:37:00;-0.10;86.30
5735;DHT22;2892;47.592;7.688;2024-01-15T02:39:25;-0.30;85.20
5735;DHT22;2892;47.592;7.688;2024-01-15T02:41:51;-0.50;86.10
5735;DHT22;2892;47.592;7.688;2024-01-15T02:44:16;-0.50;87.00
5735;DHT22;2892;47.592;7.688;2024-01-15T02:46:42;-0.40;87.60
5735;DHT22;2892;47.592;7.688;2024-01-15T02:49:07;-0.40;87.80
5735;DHT22;2892;47.592;7.688;2024-01-15T02:51:33;-0.30;87.70
5735;DHT22;2892;47.592;7.688;2024-01-15T02:53:58;-0.30;87.10
5735;DHT22;2892;47.592;7.688;2024-01-15T02:56:24;-0.30;87.50
5735;DHT22;2892;47.592;7.688;2024-01-15T02:58:49;-0.20;87.70
5735;DHT22;2892;47.592;7.688;2024-01-15T03:01:15;-0.10;87.90
5735;DHT22;2892;47.592;7.688;2024-01-15T03:03:43;0.00;87.90
5735;DHT22;2892;47.592;7.688;2024-01-15T03:06:08;0.20;87.40
5735;DHT22;2892;47.592;7.688;2024-01-15T03:08:35;0.20;87.90
5735;DHT22;2892;47.592;7.688;2024-01-15T03:11:00;0.20;87.60
5735;DHT22;2892;47.592;7.688;2024-01-15T03:13:26;0.40;87.60
5735;DHT22;2892;47.592;7.688;2024-01-15T03:15:51;0.50;87.50
5735;DHT22;2892;47.592;7.688;2024-01-15T03:18:17;0.40;87.70
5735;DHT22;2892;47.592;7.688;2024-01-15T03:20:42;0.50;87.00
5735;DHT22;2892;47.592;7.688;2024-01-15T03:23:08;0.50;87.00
5735;DHT22;2892;47.592;7.688;2024-01-15T03:25:33;0.40;86.90
5735;DHT22;2892;47.592;7.688;2024-01-15T03:27:58;0.40;87.30
5735;DHT22;2892;47.592;7.688;2024-01-15T03:30:24;0.40;87.20
5735;DHT22;2892;47.592;7.688;2024-01-15T03:32:49;0.40;87.10
5735;DHT22;2892;47.592;7.688;2024-01-15T03:35:15;0.30;87.80
5735;DHT22;2892;47.592;7.688;2024-01-15T03:37:40;0.30;87.60
5735;DHT22;2892;47.592;7.688;2024-01-15T03:40:07;0.30;88.70
5735;DHT22;2892;47.592;7.688;2024-01-15T03:42:32;0.30;88.30
5735;DHT22;2892;47.592;7.688;2024-01-15T03:44:58;0.40;88.30
5735;DHT22;2892;47.592;7.688;2024-01-15T03:47:23;0.40;88.50
5735;DHT22;2892;47.592;7.688;2024-01-15T03:49:49;0.50;88.50
5735;DHT22;2892;47.592;7.688;2024-01-15T03:52:14;0.50;87.40
5735;DHT22;2892;47.592;7.688;2024-01-15T03:54:40;0.60;86.80
5735;DHT22;2892;47.592;7.688;2024-01-15T03:57:05;0.60;87.40
5735;DHT22;2892;47.592;7.688;2024-01-15T03:59:31;0.60;87.50
5735;DHT22;2892;47.592;7.688;2024-01-15T04:01:56;0.60;86.50
5735;DHT22;2892;47.592;7.688;2024-01-15T04:04:22;0.70;86.00
5735;DHT22;2892;47.592;7.688;2024-01-15T04:06:47;0.80;86.50
5735;DHT22;2892;47.592;7.688;2024-01-15T04:09:13;0.80;87.00
5735;DHT22;2892;47.592;7.688;2024-01-15T04:11:38;0.70;86.80
5735;DHT22;2892;47.592;7.688;2024-01-15T04:14:04;0.70;86.00
5735;DHT22;2892;47.592;7.688;2024-01-15T04:16:29;0.80;86.20
5735;DHT22;2892;47.592;7.688;2024-01-15T04:18:55;0.90;86.00
5735;DHT22;2892;47.592;7.688;2024-01-15T04:21:20;0.80;86.10
5735;DHT22;2892;47.592;7.688;2024-01-15T04:23:46;0.90;86.00
5735;DHT22;2892;47.592;7.688;2024-01-15T04:26:11;0.80;86.10
5735;DHT22;2892;47.592;7.688;2024-01-15T04:28:37;0.90;85.30
5735;DHT22;2892;47.592;7.688;2024-01-15T04:31:02;0.90;84.70
5735;DHT22;2892;47.592;7.688;2024-01-15T04:33:28;0.90;85.10
5735;DHT22;2892;47.592;7.688;2024-01-15T04:35:53;0.60;86.00
5735;DHT22;2892;47.592;7.688;2024-01-15T04:38:19;0.60;86.40
5735;DHT22;2892;47.592;7.688;2024-01-15T04:40:44;0.60;86.80
5735;DHT22;2892;47.592;7.688;2024-01-15T04:43:10;0.50;86.40
5735;DHT22;2892;47.592;7.688;2024-01-15T04:45:35;0.60;86.80
5735;DHT22;2892;47.592;7.688;2024-01-15T04:48:01;0.70;85.70
5735;DHT22;2892;47.592;7.688;2024-01-15T04:50:27;0.70;85.60
5735;DHT22;2892;47.592;7.688;2024-01-15T04:52:52;0.80;86.20
5735;DHT22;2892;47.592;7.688;2024-01-15T04:55:18;0.70;86.10
5735;DHT22;2892;47.592;7.688;2024-01-15T04:57:43;0.70;85.70
5735;DHT22;2892;47.592;7.688;2024-01-15T05:00:09;0.70;84.90
5735;DHT22;2892;47.592;7.688;2024-01-15T05:02:35;0.80;84.80
5735;DHT22;2892;47.592;7.688;2024-01-15T05:05:00;0.80;84.40
5735;DHT22;2892;47.592;7.688;2024-01-15T05:07:26;0.90;84.20
5735;DHT22;2892;47.592;7.688;2024-01-15T05:09:51;0.80;84.80
5735;DHT22;2892;47.592;7.688;2024-01-15T05:12:17;0.80;84.90
5735;DHT22;2892;47.592;7.688;2024-01-15T05:14:42;0.70;85.50
5735;DHT22;2892;47.592;7.688;2024-01-15T05:17:08;0.70;85.90
5735;DHT22;2892;47.592;7.688;2024-01-15T05:19:33;0.70;86.40
5735;DHT22;2892;47.592;7.688;2024-01-15T05:21:58;0.70;86.10
5735;DHT22;2892;47.592;7.688;2024-01-15T05:24:24;0.70;86.10
5735;DHT22;2892;47.592;7.688;2024-01-15T05:26:50;0.70;85.90
5735;DHT22;2892;47.592;7.688;2024-01-15T05:29:15;0.80;84.60
5735;DHT22;2892;47.592;7.688;2024-01-15T05:31:41;0.80;85.40
5735;DHT22;2892;47.592;7.688;2024-01-15T05:34:06;0.80;83.60
5735;DHT22;2892;47.592;7.688;2024-01-15T05:36:32;0.90;84.20
5735;DHT22;2892;47.592;7.688;2024-01-15T05:38:57;0.90;83.60
5735;DHT22;2892;47.592;7.688;2024-01-15T05:41:23;1.00;82.90
5735;DHT22;2892;47.592;7.688;2024-01-15T05:43:48;1.00;82.80
5735;DHT22;2892;47.592;7.688;2024-01-15T05:46:14;1.00;82.60
5735;DHT22;2892;47.592;7.688;2024-01-15T05:48:39;1.00;82.80
5735;DHT22;2892;47.592;7.688;2024-01-15T05:51:05;0.90;82.40
5735;DHT22;2892;47.592;7.688;2024-01-15T05:53:30;0.90;82.60
5735;DHT22;2892;47.592;7.688;2024-01-15T05:55:56;0.90;82.80
5735;DHT22;2892;47.592;7.688;2024-01-15T05:58:21;0.90;82.80
5735;DHT22;2892;47.592;7.688;2024-01-15T06:00:47;0.90;82.80
5735;DHT22;2892;47.592;7.688;2024-01-15T06:03:12;0.90;82.80
5735;DHT22;2892;47.592;7.688;2024-01-15T06:05:37;0.90;82.60
5735;DHT22;2892;47.592;7.688;2024-01-15T06:08:03;0.90;82.10
5735;DHT22;2892;47.592;7.688;2024-01-15T06:10:29;1.00;82.30
5735;DHT22;2892;47.592;7.688;2024-01-15T06:12:54;0.90;82.30
5735;DHT22;2892;47.592;7.688;2024-01-15T06:15:19;1.00;82.20
5735;DHT22;2892;47.592;7.688;2024-01-15T06:17:45;1.00;82.30
5735;DHT22;2892;47.592;7.688;2024-01-15T06:20:11;1.00;81.50
5735;DHT22;2892;47.592;7.688;2024-01-15T06:22:37;1.00;81.50
5735;DHT22;2892;47.592;7.688;2024-01-15T06:25:03;1.00;81.50
5735;DHT22;2892;47.592;7.688;2024-01-15T06:27:29;1.00;81.90
5735;DHT22;2892;47.592;7.688;2024-01-15T06:29:54;1.00;81.60
5735;DHT22;2892;47.592;7.688;2024-01-15T06:32:20;1.00;81.70
5735;DHT22;2892;47.592;7.688;2024-01-15T06:34:45;1.00;81.00
5735;DHT22;2892;47.592;7.688;2024-01-15T06:37:11;1.00;80.80
5735;DHT22;2892;47.592;7.688;2024-01-15T06:39:36;1.00;81.00
5735;DHT22;2892;47.592;7.688;2024-01-15T06:42:02;1.00;81.00
5735;DHT22;2892;47.592;7.688;2024-01-15T06:44:27;1.00;80.20
5735;DHT22;2892;47.592;7.688;2024-01-15T06:46:53;1.10;79.30
5735;DHT22;2892;47.592;7.688;2024-01-15T06:49:18;1.10;80.00
5735;DHT22;2892;47.592;7.688;2024-01-15T06:51:44;1.00;79.40
5735;DHT22;2892;47.592;7.688;2024-01-15T06:54:09;1.00;79.50
5735;DHT22;2892;47.592;7.688;2024-01-15T06:56:35;1.10;79.90
5735;DHT22;2892;47.592;7.688;2024-01-15T06:59:00;1.10;80.00
5735;DHT22;2892;47.592;7.688;2024-01-15T07:01:26;1.10;80.70
5735;DHT22;2892;47.592;7.688;2024-01-15T07:03:51;1.00;80.60
5735;DHT22;2892;47.592;7.688;2024-01-15T07:06:17;1.00;80.30
5735;DHT22;2892;47.592;7.688;2024-01-15T07:08:42;1.00;80.30
5735;DHT22;2892;47.592;7.688;2024-01-15T07:11:08;1.10;80.30
5735;DHT22;2892;47.592;7.688;2024-01-15T07:13:34;1.10;80.70
5735;DHT22;2892;47.592;7.688;2024-01-15T07:15:59;1.10;80.10
5735;DHT22;2892;47.592;7.688;2024-01-15T07:18:25;1.10;79.40
5735;DHT22;2892;47.592;7.688;2024-01-15T07:20:50;1.10;80.00
5735;DHT22;2892;47.592;7.688;2024-01-15T07:23:16;1.10;79.30
5735;DHT22;2892;47.592;7.688;2024-01-15T07:25:42;1.10;79.50
5735;DHT22;2892;47.592;7.688;2024-01-15T07:28:07;1.10;79.30
5735;DHT22;2892;47.592;7.688;2024-01-15T07:30:33;1.10;79.10
5735;DHT22;2892;47.592;7.688;2024-01-15T07:32:58;1.20;79.40
5735;DHT22;2892;47.592;7.688;2024-01-15T07:35:24;1.20;78.80
5735;DHT22;2892;47.592;7.688;2024-01-15T07:37:49;1.20;78.80
5735;DHT22;2892;47.592;7.688;2024-01-15T07:40:15;1.10;79.70
5735;DHT22;2892;47.592;7.688;2024-01-15T07:42:40;1.20;79.90
5735;DHT22;2892;47.592;7.688;2024-01-15T07:45:06;1.20;79.30
5735;DHT22;2892;47.592;7.688;2024-01-15T07:47:31;1.20;79.70
5735;DHT22;2892;47.592;7.688;2024-01-15T07:49:57;1.20;79.50
5735;DHT22;2892;47.592;7.688;2024-01-15T07:52:22;1.20;80.20
5735;DHT22;2892;47.592;7.688;2024-01-15T07:54:48;1.20;80.40
5735;DHT22;2892;47.592;7.688;2024-01-15T07:57:13;1.20;80.50
5735;DHT22;2892;47.592;7.688;2024-01-15T07:59:39;1.20;80.30
5735;DHT22;2892;47.592;7.688;2024-01-15T08:02:04;1.20;80.60
5735;DHT22;2892;47.592;7.688;2024-01-15T08:04:30;1.20;80.70
5735;DHT22;2892;47.592;7.688;2024-01-15T08:06:55;1.30;80.40
5735;DHT22;2892;47.592;7.688;2024-01-15T08:09:21;1.30;81.10
5735;DHT22;2892;47.592;7.688;2024-01-15T08:11:46;1.40;79.40
5735;DHT22;2892;47.592;7.688;2024-01-15T08:14:12;1.40;81.10
5735;DHT22;2892;47.592;7.688;2024-01-15T08:16:37;1.40;80.30
5735;DHT22;2892;47.592;7.688;2024-01-15T08:19:03;1.40;79.40
5735;DHT22;2892;47.592;7.688;2024-01-15T08:21:29;1.40;78.90
5735;DHT22;2892;47.592;7.688;2024-01-15T08:23:54;1.40;79.00
5735;DHT22;2892;47.592;7.688;2024-01-15T08:26:20;1.50;78.60
5735;DHT22;2892;47.592;7.688;2024-01-15T08:28:45;1.50;77.40
5735;DHT22;2892;47.592;7.688;2024-01-15T08:31:11;1.60;76.20
5735;DHT22;2892;47.592;7.688;2024-01-15T08:33:37;1.70;77.30
5735;DHT22;2892;47.592;7.688;2024-01-15T08:36:03;1.70;77.70
5735;DHT22;2892;47.592;7.688;2024-01-15T08:38:29;1.70;76.50
5735;DHT22;2892;47.592;7.688;2024-01-15T08:40:54;1.80;75.70
5735;DHT22;2892;47.592;7.688;2024-01-15T08:43:20;1.90;76.10
5735;DHT22;2892;47.592;7.688;2024-01-15T08:45:45;1.90;75.00
5735;DHT22;2892;47.592;7.688;2024-01-15T08:48:11;1.90;75.00
5735;DHT22;2892;47.592;7.688;2024-01-15T08:50:36;1.90;75.50
5735;DHT22;2892;47.592;7.688;2024-01-15T08:53:02;2.00;76.10
5735;DHT22;2892;47.592;7.688;2024-01-15T08:55:27;2.00;75.80
5735;DHT22;2892;47.592;7.688;2024-01-15T08:57:53;2.00;76.50
5735;DHT22;2892;47.592;7.688;2024-01-15T09:00:18;2.10;75.10
5735;DHT22;2892;47.592;7.688;2024-01-15T09:02:44;2.20;74.50
5735;DHT22;2892;47.592;7.688;2024-01-15T09:05:09;2.30;75.20
5735;DHT22;2892;47.592;7.688;2024-01-15T09:07:35;2.30;73.00
5735;DHT22;2892;47.592;7.688;2024-01-15T09:10:00;2.50;74.40
5735;DHT22;2892;47.592;7.688;2024-01-15T09:12:26;2.60;73.80
5735;DHT22;2892;47.592;7.688;2024-01-15T09:14:51;2.80;72.70
5735;DHT22;2892;47.592;7.688;2024-01-15T09:17:17;2.80;71.20
5735;DHT22;2892;47.592;7.688;2024-01-15T09:19:43;3.10;71.80
5735;DHT22;2892;47.592;7.688;2024-01-15T09:22:08;3.30;72.10
5735;DHT22;2892;47.592;7.688;2024-01-15T09:24:34;3.70;70.50
5735;DHT22;2892;47.592;7.688;2024-01-15T09:26:59;3.70;70.10
5735;DHT22;2892;47.592;7.688;2024-01-15T09:29:25;3.40;69.20
5735;DHT22;2892;47.592;7.688;2024-01-15T09:31:51;3.40;69.90
5735;DHT22;2892;47.592;7.688;2024-01-15T09:34:17;3.50;69.10
5735;DHT22;2892;47.592;7.688;2024-01-15T09:36:43;3.40;68.20
5735;DHT22;2892;47.592;7.688;2024-01-15T09:39:09;3.50;67.80
5735;DHT22;2892;47.592;7.688;2024-01-15T09:41:36;3.90;68.80
5735;DHT22;2892;47.592;7.688;2024-01-15T09:44:03;4.00;68.20
5735;DHT22;2892;47.592;7.688;2024-01-15T09:46:29;4.20;67.10
5735;DHT22;2892;47.592;7.688;2024-01-15T09:48:55;4.10;65.10
5735;DHT22;2892;47.592;7.688;2024-01-15T09:51:21;4.10;65.30
5735;DHT22;2892;47.592;7.688;2024-01-15T09:53:47;4.20;65.90
5735;DHT22;2892;47.592;7.688;2024-01-15T09:56:14;4.30;63.50
5735;DHT22;2892;47.592;7.688;2024-01-15T09:58:40;4.20;63.20
5735;DHT22;2892;47.592;7.688;2024-01-15T10:01:06;4.50;65.50
5735;DHT22;2892;47.592;7.688;2024-01-15T10:03:33;4.60;62.60
5735;DHT22;2892;47.592;7.688;2024-01-15T10:05:59;4.70;64.30
5735;DHT22;2892;47.592;7.688;2024-01-15T10:08:25;4.70;64.80
5735;DHT22;2892;47.592;7.688;2024-01-15T10:10:51;4.70;61.70
5735;DHT22;2892;47.592;7.688;2024-01-15T10:13:16;4.40;63.50
5735;DHT22;2892;47.592;7.688;2024-01-15T10:15:45;4.30;64.50
5735;DHT22;2892;47.592;7.688;2024-01-15T10:18:11;4.30;63.90
5735;DHT22;2892;47.592;7.688;2024-01-15T10:20:36;4.20;65.20
5735;DHT22;2892;47.592;7.688;2024-01-15T10:23:03;4.20;65.90
5735;DHT22;2892;47.592;7.688;2024-01-15T10:25:29;4.20;67.30
5735;DHT22;2892;47.592;7.688;2024-01-15T10:28:03;4.00;65.80
5735;DHT22;2892;47.592;7.688;2024-01-15T10:30:30;4.00;66.20
5735;DHT22;2892;47.592;7.688;2024-01-15T10:33:00;4.00;66.60
5735;DHT22;2892;47.592;7.688;2024-01-15T10:35:34;3.90;65.60
5735;DHT22;2892;47.592;7.688;2024-01-15T10:38:00;3.80;66.10
5735;DHT22;2892;47.592;7.688;2024-01-15T10:40:26;3.60;66.70
5735;DHT22;2892;47.592;7.688;2024-01-15T10:42:52;3.50;68.60
5735;DHT22;2892;47.592;7.688;2024-01-15T10:45:18;3.40;69.20
5735;DHT22;2892;47.592;7.688;2024-01-15T10:47:43;3.30;69.40
5735;DHT22;2892;47.592;7.688;2024-01-15T10:50:09;3.20;70.50
5735;DHT22;2892;47.592;7.688;2024-01-15T10:52:36;3.20;71.10
5735;DHT22;2892;47.592;7.688;2024-01-15T10:55:03;3.10;70.70
5735;DHT22;2892;47.592;7.688;2024-01-15T10:57:29;3.10;70.90
5735;DHT22;2892;47.592;7.688;2024-01-15T10:59:55;3.10;70.90
5735;DHT22;2892;47.592;7.688;2024-01-15T11:02:21;3.10;72.00
5735;DHT22;2892;47.592;7.688;2024-01-15T11:04:46;3.10;71.70
5735;DHT22;2892;47.592;7.688;2024-01-15T11:07:13;3.00;72.40
5735;DHT22;2892;47.592;7.688;2024-01-15T11:09:39;3.00;73.00
5735;DHT22;2892;47.592;7.688;2024-01-15T11:12:10;2.90;73.80
5735;DHT22;2892;47.592;7.688;2024-01-15T11:14:52;2.80;73.80
5735;DHT22;2892;47.592;7.688;2024-01-15T11:17:18;2.90;75.40
5735;DHT22;2892;47.592;7.688;2024-01-15T11:19:45;2.90;75.50
5735;DHT22;2892;47.592;7.688;2024-01-15T11:25:01;3.00;75.20
5735;DHT22;2892;47.592;7.688;2024-01-15T11:27:47;3.10;75.80
5735;DHT22;2892;47.592;7.688;2024-01-15T11:30:13;3.00;74.80
5735;DHT22;2892;47.592;7.688;2024-01-15T11:32:40;3.00;75.60
5735;DHT22;2892;47.592;7.688;2024-01-15T11:35:06;2.90;74.80
5735;DHT22;2892;47.592;7.688;2024-01-15T11:40:18;3.00;75.90
5735;DHT22;2892;47.592;7.688;2024-01-15T11:42:45;2.80;75.50
5735;DHT22;2892;47.592;7.688;2024-01-15T11:45:11;2.80;76.40
5735;DHT22;2892;47.592;7.688;2024-01-15T11:50:30;2.80;77.20
5735;DHT22;2892;47.592;7.688;2024-01-15T11:53:00;2.70;77.10
5735;DHT22;2892;47.592;7.688;2024-01-15T11:55:44;2.70;77.30
5735;DHT22;2892;47.592;7.688;2024-01-15T11:58:10;2.80;77.80
5735;DHT22;2892;47.592;7.688;2024-01-15T12:00:40;2.70;77.90
5735;DHT22;2892;47.592;7.688;2024-01-15T12:03:06;2.70;79.10
5735;DHT22;2892;47.592;7.688;2024-01-15T12:05:31;2.70;78.60
5735;DHT22;2892;47.592;7.688;2024-01-15T12:07:57;2.80;79.00
5735;DHT22;2892;47.592;7.688;2024-01-15T12:10:22;2.70;78.90
5735;DHT22;2892;47.592;7.688;2024-01-15T12:13:12;2.70;79.40
5735;DHT22;2892;47.592;7.688;2024-01-15T12:15:37;2.70;80.30
5735;DHT22;2892;47.592;7.688;2024-01-15T12:18:03;2.70;79.70
5735;DHT22;2892;47.592;7.688;2024-01-15T12:20:30;2.60;80.20
5735;DHT22;2892;47.592;7.688;2024-01-15T12:22:56;2.60;80.30
5735;DHT22;2892;47.592;7.688;2024-01-15T12:25:23;2.60;80.20
5735;DHT22;2892;47.592;7.688;2024-01-15T12:27:48;2.60;80.10
5735;DHT22;2892;47.592;7.688;2024-01-15T12:30:14;2.60;81.40
5735;DHT22;2892;47.592;7.688;2024-01-15T12:32:41;2.50;80.00
5735;DHT22;2892;47.592;7.688;2024-01-15T12:35:06;2.50;80.20
5735;DHT22;2892;47.592;7.688;2024-01-15T12:37:32;2.50;80.80
5735;DHT22;2892;47.592;7.688;2024-01-15T12:39:58;2.60;81.40
5735;DHT22;2892;47.592;7.688;2024-01-15T12:42:24;2.50;80.10
5735;DHT22;2892;47.592;7.688;2024-01-15T12:44:50;2.40;80.20
5735;DHT22;2892;47.592;7.688;2024-01-15T12:47:15;2.50;80.60
5735;DHT22;2892;47.592;7.688;2024-01-15T12:49:41;2.50;80.00
5735;DHT22;2892;47.592;7.688;2024-01-15T12:52:09;2.50;80.20
5735;DHT22;2892;47.592;7.688;2024-01-15T12:54:34;2.50;80.10
5735;DHT22;2892;47.592;7.688;2024-01-15T12:57:00;2.50;80.30
5735;DHT22;2892;47.592;7.688;2024-01-15T12:59:25;2.50;79.80
5735;DHT22;2892;47.592;7.688;2024-01-15T13:01:51;2.60;80.70
5735;DHT22;2892;47.592;7.688;2024-01-15T13:04:24;2.60;80.80
5735;DHT22;2892;47.592;7.688;2024-01-15T13:06:50;2.60;79.60
5735;DHT22;2892;47.592;7.688;2024-01-15T13:09:17;2.60;80.00
5735;DHT22;2892;47.592;7.688;2024-01-15T13:11:43;2.60;79.30
5735;DHT22;2892;47.592;7.688;2024-01-15T13:14:09;2.60;78.90
5735;DHT22;2892;47.592;7.688;2024-01-15T13:16:34;2.60;79.80
5735;DHT22;2892;47.592;7.688;2024-01-15T13:19:00;2.60;79.70
5735;DHT22;2892;47.592;7.688;2024-01-15T13:21:25;2.70;79.50
5735;DHT22;2892;47.592;7.688;2024-01-15T13:23:51;2.70;79.20
5735;DHT22;2892;47.592;7.688;2024-01-15T13:26:16;2.70;78.20
5735;DHT22;2892;47.592;7.688;2024-01-15T13:28:42;2.70;78.80
5735;DHT22;2892;47.592;7.688;2024-01-15T13:31:07;2.70;78.40
5735;DHT22;2892;47.592;7.688;2024-01-15T13:33:33;2.60;77.90
5735;DHT22;2892;47.592;7.688;2024-01-15T13:35:58;2.70;77.60
5735;DHT22;2892;47.592;7.688;2024-01-15T13:38:24;2.70;78.00
5735;DHT22;2892;47.592;7.688;2024-01-15T13:40:49;2.70;78.30
5735;DHT22;2892;47.592;7.688;2024-01-15T13:43:15;2.70;77.50
5735;DHT22;2892;47.592;7.688;2024-01-15T13:45:42;2.60;78.10
5735;DHT22;2892;47.592;7.688;2024-01-15T13:48:07;2.70;78.80
5735;DHT22;2892;47.592;7.688;2024-01-15T13:50:32;2.70;78.00
5735;DHT22;2892;47.592;7.688;2024-01-15T13:52:58;2.60;77.10
5735;DHT22;2892;47.592;7.688;2024-01-15T13:55:23;2.60;77.80
5735;DHT22;2892;47.592;7.688;2024-01-15T13:57:49;2.60;78.20
5735;DHT22;2892;47.592;7.688;2024-01-15T14:00:15;2.60;77.80
5735;DHT22;2892;47.592;7.688;2024-01-15T14:02:40;2.50;78.60
5735;DHT22;2892;47.592;7.688;2024-01-15T14:05:06;2.60;79.00
5735;DHT22;2892;47.592;7.688;2024-01-15T14:07:31;2.60;78.50
5735;DHT22;2892;47.592;7.688;2024-01-15T14:09:57;2.60;79.00
5735;DHT22;2892;47.592;7.688;2024-01-15T14:12:22;2.60;78.60
5735;DHT22;2892;47.592;7.688;2024-01-15T14:14:48;2.60;78.50
5735;DHT22;2892;47.592;7.688;2024-01-15T14:17:13;2.60;78.00
5735;DHT22;2892;47.592;7.688;2024-01-15T14:19:39;2.60;77.90
5735;DHT22;2892;47.592;7.688;2024-01-15T14:22:04;2.60;78.00
5735;DHT22;2892;47.592;7.688;2024-01-15T14:24:30;2.60;78.10
5735;DHT22;2892;47.592;7.688;2024-01-15T14:26:55;2.60;77.90
5735;DHT22;2892;47.592;7.688;2024-01-15T14:29:21;2.50;78.00
5735;DHT22;2892;47.592;7.688;2024-01-15T14:31:46;2.60;77.60
5735;DHT22;2892;47.592;7.688;2024-01-15T14:34:12;2.60;78.40
5735;DHT22;2892;47.592;7.688;2024-01-15T14:36:37;2.60;78.20
5735;DHT22;2892;47.592;7.688;2024-01-15T14:39:03;2.60;78.30
5735;DHT22;2892;47.592;7.688;2024-01-15T14:41:29;2.60;78.20
5735;DHT22;2892;47.592;7.688;2024-01-15T14:43:55;2.60;78.00
5735;DHT22;2892;47.592;7.688;2024-01-15T14:46:20;2.60;78.00
5735;DHT22;2892;47.592;7.688;2024-01-15T14:48:46;2.70;78.50
5735;DHT22;2892;47.592;7.688;2024-01-15T14:51:11;2.70;77.30
5735;DHT22;2892;47.592;7.688;2024-01-15T14:53:37;2.70;78.20
5735;DHT22;2892;47.592;7.688;2024-01-15T14:56:02;2.70;77.30
5735;DHT22;2892;47.592;7.688;2024-01-15T14:58:28;2.70;77.30
5735;DHT22;2892;47.592;7.688;2024-01-15T15:00:53;2.70;77.40
5735;DHT22;2892;47.592;7.688;2024-01-15T15:03:19;2.70;77.10
5735;DHT22;2892;47.592;7.688;2024-01-15T15:05:44;2.70;77.10
5735;DHT22;2892;47.592;7.688;2024-01-15T15:08:10;2.70;77.80
5735;DHT22;2892;47.592;7.688;2024-01-15T15:10:35;2.60;77.80
5735;DHT22;2892;47.592;7.688;2024-01-15T15:13:01;2.60;77.40
5735;DHT22;2892;47.592;7.688;2024-01-15T15:15:27;2.60;78.00
5735;DHT22;2892;47.592;7.688;2024-01-15T15:17:52;2.60;79.20
5735;DHT22;2892;47.592;7.688;2024-01-15T15:20:18;2.60;79.00
5735;DHT22;2892;47.592;7.688;2024-01-15T15:22:43;2.60;80.20
5735;DHT22;2892;47.592;7.688;2024-01-15T15:25:09;2.50;79.10
5735;DHT22;2892;47.592;7.688;2024-01-15T15:27:35;2.50;79.80
5735;DHT22;2892;47.592;7.688;2024-01-15T15:30:00;2.50;80.40
5735;DHT22;2892;47.592;7.688;2024-01-15T15:32:26;2.50;80.00
5735;DHT22;2892;47.592;7.688;2024-01-15T15:34:51;2.50;81.10
5735;DHT22;2892;47.592;7.688;2024-01-15T15:37:17;2.50;81.30
5735;DHT22;2892;47.592;7.688;2024-01-15T15:39:42;2.40;81.70
5735;DHT22;2892;47.592;7.688;2024-01-15T15:42:08;2.40;80.30
5735;DHT22;2892;47.592;7.688;2024-01-15T15:44:33;2.40;81.90
5735;DHT22;2892;47.592;7.688;2024-01-15T15:46:59;2.40;80.80
5735;DHT22;2892;47.592;7.688;2024-01-15T15:49:24;2.40;80.90
5735;DHT22;2892;47.592;7.688;2024-01-15T15:51:50;2.40;81.30
5735;DHT22;2892;47.592;7.688;2024-01-15T15:54:15;2.40;81.60
5735;DHT22;2892;47.592;7.688;2024-01-15T15:56:41;2.40;81.70
5735;DHT22;2892;47.592;7.688;2024-01-15T15:59:06;2.30;81.60
5735;DHT22;2892;47.592;7.688;2024-01-15T16:01:32;2.30;82.60
5735;DHT22;2892;47.592;7.688;2024-01-15T16:03:58;2.30;83.00
5735;DHT22;2892;47.592;7.688;2024-01-15T16:06:23;2.20;83.60
5735;DHT22;2892;47.592;7.688;2024-01-15T16:08:49;2.20;84.50
5735;DHT22;2892;47.592;7.688;2024-01-15T16:11:14;2.20;84.50
5735;DHT22;2892;47.592;7.688;2024-01-15T16:13:40;2.20;84.20
5735;DHT22;2892;47.592;7.688;2024-01-15T16:16:06;2.20;84.70